createdAt,value
2022-07-26T00:01:31.816Z,100741.03
2022-07-26T00:06:51.514Z,100738.88
2022-07-26T00:11:51.771Z,100729.00
2022-07-26T00:16:54.183Z,100741.75
2022-07-26T00:22:12.026Z,100737.50
2022-07-26T00:27:17.885Z,100732.22
2022-07-26T00:32:27.556Z,100719.47
2022-07-26T00:37:33.553Z,100726.88
2022-07-26T00:42:37.624Z,100728.28
2022-07-26T00:47:42.528Z,100731.03
2022-07-26T00:52:52.570Z,100728.66
2022-07-26T00:57:49.762Z,100728.44
2022-07-26T01:02:48.795Z,100724.91
2022-07-26T01:07:47.055Z,100728.06
2022-07-26T01:12:47.851Z,100724.03
2022-07-26T01:17:49.056Z,100708.22
2022-07-26T01:22:51.466Z,100707.38
2022-07-26T01:27:50.753Z,100697.28
2022-07-26T01:32:52.090Z,100711.19
2022-07-26T01:37:54.793Z,100703.53
2022-07-26T01:42:54.262Z,100698.31
2022-07-26T01:47:53.883Z,100698.19
2022-07-26T01:53:06.116Z,100692.91
2022-07-26T01:58:15.677Z,100695.81
2022-07-26T02:03:17.023Z,100690.31
2022-07-26T02:08:18.913Z,100696.28
2022-07-26T02:13:20.076Z,100698.34
2022-07-26T02:18:44.973Z,100692.25
2022-07-26T02:23:55.322Z,100692.47
2022-07-26T02:28:54.902Z,100695.31
2022-07-26T02:33:53.006Z,100693.97
2022-07-26T02:44:04.566Z,100708.94
2022-07-26T02:49:09.296Z,100712.53
2022-07-26T02:54:13.403Z,100704.94
2022-07-26T02:59:13.552Z,100714.91
2022-07-26T03:04:17.223Z,100710.44
2022-07-26T03:09:17.987Z,100701.19
2022-07-26T03:14:14.952Z,100704.94
2022-07-26T03:19:12.804Z,100713.91
2022-07-26T03:24:14.948Z,100706.59
2022-07-26T03:29:16.691Z,100719.47
2022-07-26T03:34:50.183Z,100712.34
2022-07-26T03:39:55.481Z,100699.31
2022-07-26T03:45:09.742Z,100714.75
2022-07-26T03:50:08.778Z,100715.59
2022-07-26T03:55:22.848Z,100707.31
2022-07-26T04:00:26.606Z,100710.34
2022-07-26T04:05:40.902Z,100708.03
2022-07-26T04:10:50.698Z,100707.81
2022-07-26T04:16:02.885Z,100705.75
2022-07-26T04:21:23.398Z,100702.94
2022-07-26T04:26:33.161Z,100713.13
2022-07-26T04:31:42.105Z,100708.78
2022-07-26T04:36:54.688Z,100704.94
2022-07-26T04:42:00.809Z,100698.50
2022-07-26T04:47:04.730Z,100695.59
2022-07-26T04:52:03.979Z,100696.81
2022-07-26T04:57:08.207Z,100693.56
2022-07-26T05:02:14.756Z,100694.16
2022-07-26T05:07:29.722Z,100676.81
2022-07-26T05:12:35.161Z,100684.75
2022-07-26T05:17:45.755Z,100693.34
2022-07-26T05:23:02.982Z,100694.50
2022-07-26T05:28:12.863Z,100696.34
2022-07-26T05:33:16.757Z,100696.81
2022-07-26T05:38:38.977Z,100701.78
2022-07-26T05:43:42.182Z,100698.72
2022-07-26T05:49:23.239Z,100703.53
2022-07-26T05:54:37.075Z,100710.19
2022-07-26T06:19:04.408Z,100676.13
2022-07-26T06:24:28.604Z,100670.81
2022-07-26T06:30:02.022Z,100677.63
2022-07-26T06:35:10.129Z,100671.94
2022-07-26T06:40:35.566Z,100684.84
2022-07-26T06:45:51.653Z,100681.78
2022-07-26T06:51:44.925Z,100682.03
2022-07-26T06:56:54.885Z,100674.72
2022-07-26T07:02:04.001Z,100668.97
2022-07-26T07:07:20.863Z,100672.66
2022-07-26T07:18:11.441Z,100673.00
2022-07-26T07:23:14.262Z,100677.56
2022-07-26T07:28:14.785Z,100681.41
2022-07-26T07:33:22.779Z,100678.50
2022-07-26T07:38:43.016Z,100677.25
2022-07-26T07:43:54.053Z,100674.56
2022-07-26T07:48:59.086Z,100677.91
2022-07-26T07:54:14.406Z,100676.09
2022-07-26T07:59:15.826Z,100676.19
2022-07-26T08:04:25.775Z,100676.53
2022-07-26T08:09:28.977Z,100669.22
2022-07-26T08:20:17.761Z,100661.41
2022-07-26T08:25:22.024Z,100648.63
2022-07-26T08:30:24.615Z,100638.69
2022-07-26T08:35:35.760Z,100640.09
2022-07-26T08:53:23.661Z,100623.22
2022-07-26T08:58:28.852Z,100622.25
2022-07-26T09:10:06.079Z,100609.13
2022-07-26T09:16:05.360Z,100612.09
2022-07-26T09:27:38.576Z,100601.66
2022-07-26T09:32:44.139Z,100596.66
2022-07-26T09:37:45.399Z,100594.34
2022-07-26T09:42:58.648Z,100592.06
2022-07-26T09:48:59.304Z,100584.09
2022-07-26T09:54:05.745Z,100577.38
2022-07-26T09:59:26.676Z,100558.72
2022-07-26T10:11:17.906Z,100565.63
2022-07-26T10:16:38.490Z,100564.41
2022-07-26T10:21:37.529Z,100559.75
2022-07-26T10:33:15.876Z,100547.97
2022-07-26T10:38:35.906Z,100535.63
2022-07-26T10:43:41.184Z,100536.00
2022-07-26T10:48:54.956Z,100533.94
2022-07-26T10:54:07.507Z,100530.13
2022-07-26T10:59:12.239Z,100518.63
2022-07-26T11:09:39.762Z,100521.50
2022-07-26T11:14:41.726Z,100507.91
2022-07-26T11:20:11.980Z,100509.88
2022-07-26T11:31:50.537Z,100497.84
2022-07-26T11:36:59.110Z,100487.94
2022-07-26T11:42:50.166Z,100474.34
2022-07-26T11:48:10.350Z,100466.59
2022-07-26T11:53:30.722Z,100461.53
2022-07-26T11:58:30.619Z,100448.91
2022-07-26T12:04:05.125Z,100455.91
2022-07-26T12:09:38.552Z,100442.19
2022-07-26T12:20:45.582Z,100433.41
2022-07-26T12:33:24.408Z,100407.47
2022-07-26T12:38:55.668Z,100410.66
2022-07-26T12:44:03.327Z,100400.38
2022-07-26T12:49:06.580Z,100400.66
2022-07-26T12:54:24.164Z,100397.31
2022-07-26T12:59:33.080Z,100394.13
2022-07-26T13:04:43.237Z,100385.94
2022-07-26T13:09:43.112Z,100388.53
2022-07-26T13:15:06.083Z,100380.84
2022-07-26T13:20:41.979Z,100389.19
2022-07-26T13:25:41.830Z,100385.84
2022-07-26T13:30:52.819Z,100379.84
2022-07-26T13:35:59.819Z,100381.28
2022-07-26T13:41:08.662Z,100377.06
2022-07-26T13:52:15.518Z,100367.22
2022-07-26T13:57:55.903Z,100354.44
2022-07-26T14:03:20.004Z,100371.84
2022-07-26T14:08:25.664Z,100362.81
2022-07-26T14:13:32.069Z,100359.84
2022-07-26T14:18:36.818Z,100362.00
2022-07-26T14:23:42.277Z,100356.69
2022-07-26T14:28:49.485Z,100351.91
2022-07-26T14:33:53.558Z,100345.09
2022-07-26T14:38:52.863Z,100341.25
2022-07-26T14:44:01.915Z,100349.75
2022-07-26T14:49:05.569Z,100333.41
2022-07-26T14:54:05.083Z,100333.63
2022-07-26T14:59:04.367Z,100328.50
2022-07-26T15:04:03.558Z,100323.63
2022-07-26T15:09:03.515Z,100318.97
2022-07-26T15:14:05.856Z,100318.50
2022-07-26T15:19:04.042Z,100318.97
2022-07-26T15:24:01.531Z,100300.47
2022-07-26T15:29:00.845Z,100293.06
2022-07-26T15:33:57.480Z,100312.34
2022-07-26T15:38:55.305Z,100289.66
2022-07-26T15:43:51.860Z,100297.28
2022-07-26T15:48:48.555Z,100299.44
2022-07-26T15:53:46.765Z,100295.50
2022-07-26T15:58:44.927Z,100298.00
2022-07-26T16:03:41.702Z,100304.91
2022-07-26T16:08:58.508Z,100303.72
2022-07-26T16:14:01.299Z,100287.31
2022-07-26T16:18:58.723Z,100300.88
2022-07-26T16:23:55.291Z,100301.72
2022-07-26T16:28:52.542Z,100299.97
2022-07-26T16:33:49.793Z,100300.88
2022-07-26T16:38:46.445Z,100288.59
2022-07-26T16:43:44.679Z,100300.53
2022-07-26T16:48:41.484Z,100292.94
2022-07-26T16:53:38.765Z,100301.28
2022-07-26T16:58:35.404Z,100307.38
2022-07-26T17:03:31.958Z,100307.38
2022-07-26T17:08:28.695Z,100310.16
2022-07-26T17:13:25.976Z,100309.34
2022-07-26T17:18:22.570Z,100309.81
2022-07-26T17:23:19.398Z,100308.50
2022-07-26T17:28:17.117Z,100308.50
2022-07-26T17:33:14.837Z,100318.13
2022-07-26T17:38:11.511Z,100320.25
2022-07-26T17:43:08.267Z,100327.03
2022-07-26T17:48:06.506Z,100315.34
2022-07-26T17:53:03.971Z,100316.00
2022-07-26T17:58:00.982Z,100319.47
2022-07-26T18:02:57.614Z,100321.72
2022-07-26T18:07:54.165Z,100307.03
2022-07-26T18:12:51.423Z,100322.25
2022-07-26T18:17:48.015Z,100328.50
2022-07-26T18:22:45.763Z,100334.41
2022-07-26T18:27:46.709Z,100332.84
2022-07-26T18:32:43.943Z,100332.94
2022-07-26T18:37:40.645Z,100342.34
2022-07-26T18:42:40.368Z,100348.75
2022-07-26T18:47:37.145Z,100345.25
2022-07-26T18:52:34.603Z,100349.47
2022-07-26T18:57:31.263Z,100355.34
2022-07-26T19:02:28.541Z,100354.28
2022-07-26T19:07:25.231Z,100349.09
2022-07-26T19:12:22.541Z,100346.41
2022-07-26T19:17:19.213Z,100352.94
2022-07-26T19:22:15.854Z,100349.38
2022-07-26T19:27:14.350Z,100345.63
2022-07-26T19:32:11.637Z,100344.63
2022-07-26T19:37:08.331Z,100342.94
2022-07-26T19:42:05.054Z,100342.09
2022-07-26T19:47:01.623Z,100321.59
2022-07-26T19:51:59.226Z,100343.41
2022-07-26T19:56:55.858Z,100335.91
2022-07-26T20:01:54.543Z,100342.28
2022-07-26T20:06:54.331Z,100348.69
2022-07-26T20:11:51.548Z,100351.28
2022-07-26T20:16:51.650Z,100352.59
2022-07-26T20:21:54.294Z,100352.47
2022-07-26T20:26:51.677Z,100350.81
2022-07-26T20:31:48.304Z,100354.59
2022-07-26T20:36:45.517Z,100355.88
2022-07-26T20:41:42.110Z,100354.00
2022-07-26T20:46:40.261Z,100345.38
2022-07-26T20:51:37.043Z,100358.13
2022-07-26T20:56:33.668Z,100350.84
2022-07-26T21:01:30.392Z,100359.69
2022-07-26T21:06:29.188Z,100356.69
2022-07-26T21:11:26.181Z,100368.63
2022-07-26T21:16:23.090Z,100364.81
2022-07-26T21:21:20.021Z,100367.78
2022-07-26T21:26:17.357Z,100361.72
2022-07-26T21:31:13.951Z,100369.31
2022-07-26T21:36:10.641Z,100361.38
2022-07-26T21:41:07.170Z,100357.63
2022-07-26T21:46:07.837Z,100353.44
2022-07-26T21:51:08.526Z,100343.81
2022-07-26T21:56:05.496Z,100342.47
2022-07-26T22:01:03.317Z,100335.25
2022-07-26T22:06:04.440Z,100330.25
2022-07-26T22:11:01.041Z,100335.69
2022-07-26T22:15:57.629Z,100324.59
2022-07-26T22:20:54.588Z,100330.63
2022-07-26T22:25:51.866Z,100334.97
2022-07-26T22:30:48.556Z,100334.50
2022-07-26T22:35:45.118Z,100335.72
2022-07-26T22:40:42.349Z,100331.84
2022-07-26T22:45:39.770Z,100332.44
2022-07-26T22:50:36.928Z,100325.88
2022-07-26T22:55:33.436Z,100325.91
2022-07-26T23:00:30.035Z,100333.28
2022-07-26T23:05:36.621Z,100346.38
2022-07-26T23:10:42.483Z,100344.31
2022-07-26T23:15:39.016Z,100348.53
2022-07-26T23:20:36.384Z,100345.06
2022-07-26T23:25:32.970Z,100358.88
2022-07-26T23:30:30.250Z,100354.25
2022-07-26T23:35:26.946Z,100366.97
2022-07-26T23:40:24.738Z,100356.91
2022-07-26T23:45:21.499Z,100362.72
2022-07-26T23:50:18.765Z,100351.53
2022-07-26T23:55:15.308Z,100362.94
